Terminal Aerodrome Forecast
Issued by NWS Binghamton, NY

Home | Current Version | Previous Version | Text Only | Print | Product List | Glossary On
Versions: 1 2 3 4 5 6 7 8 9 10 11 12 13 14 15 16 17 18
000
FTUS41 KBGM 270536
TAFSYR
TAF
KSYR 270536Z 2706/2806 08005KT P6SM SCT200
     FM271400 14010G20KT P6SM SCT200
     FM272000 16011G21KT P6SM SCT050
     FM280200 25010KT P6SM BKN040 BKN200
      TEMPO 2802/2805 5SM TSRA BR BKN025CB=

USA.gov is the U.S. government's official web portal to all federal, state and local government web resources and services.